This is the latest recevied weather packets stored in our database for station/object DB5WY-13. If no packets are shown the sender has not sent any weather packets the latest 10 day(s).
| Time | Temp. | Humidity | Pressure | Rain* | Wind** | Luminosity | Snow |
|---|---|---|---|---|---|---|---|
| 1777915800 | 12.78° C | 85% | 1014.9 hPa | 0 mm | - | - | - |
| 1777915200 | 12.78° C | 85% | 1014.8 hPa | 0 mm | - | - | - |
| 1777914600 | 13.33° C | 85% | 1014.9 hPa | 0 mm | - | - | - |
| 1777914000 | 13.89° C | 84% | 1014.8 hPa | 0 mm | - | - | - |
| 1777913400 | 13.89° C | 84% | 1014.9 hPa | 0 mm | - | - | - |
| 1777912800 | 14.44° C | 84% | 1015.3 hPa | 0 mm | - | - | - |
| 1777912200 | 14.44° C | 84% | 1015.4 hPa | 0 mm | - | - | - |
| 1777911600 | 14.44° C | 85% | 1015.4 hPa | 0 mm | - | - | - |
| 1777911000 | 13.89° C | 85% | 1015.4 hPa | 0 mm | - | - | - |
| 1777910400 | 13.89° C | 84% | 1015.7 hPa | 0 mm | - | - | - |
| 1777909800 | 13.89° C | 85% | 1015.4 hPa | 0 mm | - | - | - |
| 1777909200 | 13.89° C | 86% | 1015.4 hPa | 0.51 mm | - | - | - |
| 1777908601 | 13.33° C | 85% | 1015.5 hPa | 0.51 mm | - | - | - |
| 1777908001 | 12.78° C | 85% | 1015.7 hPa | 1.02 mm | - | - | - |
| 1777907401 | 12.78° C | 85% | 1015.7 hPa | 1.52 mm | - | - | - |
| 1777906801 | 12.78° C | 85% | 1015.7 hPa | 2.54 mm | - | - | - |
| 1777906201 | 12.22° C | 85% | 1015.8 hPa | 3.05 mm | - | - | - |
| 1777905601 | 11.67° C | 85% | 1015.9 hPa | 2.54 mm | - | - | - |
| 1777905001 | 11.67° C | 84% | 1016.1 hPa | 2.54 mm | - | - | - |
| 1777904401 | 12.22° C | 82% | 1016 hPa | 2.03 mm | - | - | - |
| 1777903801 | 12.22° C | 81% | 1016 hPa | 1.52 mm | - | - | - |
| 1777903201 | 13.33° C | 78% | 1016 hPa | 0.51 mm | - | - | - |
| 1777902601 | 15.56° C | 69% | 1015.6 hPa | 0 mm | - | - | - |
| 1777902001 | 18.89° C | 54% | 1015.6 hPa | 0 mm | - | - | - |
| 1777901401 | 20.56° C | 46% | 1015 hPa | 0 mm | - | - | - |
* Rain latest hour (hover to see other rain measurements)
** Current wind speed in m/s (hover to see current wind gust speed)